createdAt,value
2022-10-18T00:00:32.642Z,96.77
2022-10-18T00:03:37.142Z,97.08
2022-10-18T00:06:43.360Z,98.44
2022-10-18T00:09:48.398Z,99.95
2022-10-18T00:12:51.662Z,100.00
2022-10-18T00:15:58.414Z,99.02
2022-10-18T00:19:01.455Z,100.00
2022-10-18T00:22:04.642Z,100.00
2022-10-18T00:25:08.479Z,99.93
2022-10-18T00:28:11.718Z,96.92
2022-10-18T00:31:23.628Z,97.40
2022-10-18T00:34:26.904Z,99.01
2022-10-18T00:37:29.851Z,98.93
2022-10-18T00:40:33.832Z,100.00
2022-10-18T00:43:54.862Z,100.00
2022-10-18T00:47:10.416Z,100.00
2022-10-18T00:50:13.785Z,100.00
2022-10-18T00:53:21.522Z,100.00
2022-10-18T00:56:24.352Z,100.00
2022-10-18T00:59:28.426Z,100.00
2022-10-18T01:02:33.701Z,100.00
2022-10-18T01:05:42.901Z,100.00
2022-10-18T01:09:02.582Z,100.00
2022-10-18T01:12:21.756Z,100.00
2022-10-18T01:15:29.367Z,100.00
2022-10-18T01:18:48.012Z,100.00
2022-10-18T01:21:57.887Z,100.00
2022-10-18T01:25:14.694Z,100.00
2022-10-18T01:28:53.659Z,100.00
2022-10-18T01:32:02.750Z,100.00
2022-10-18T01:35:18.381Z,100.00
2022-10-18T01:38:24.191Z,100.00
2022-10-18T01:41:28.858Z,100.00
2022-10-18T01:44:34.286Z,100.00
2022-10-18T01:47:37.756Z,100.00
2022-10-18T01:50:41.139Z,99.35
2022-10-18T01:53:43.989Z,97.16
2022-10-18T01:57:04.856Z,95.91
2022-10-18T02:00:24.090Z,96.69
2022-10-18T02:03:29.595Z,94.66
2022-10-18T02:06:42.632Z,93.32
2022-10-18T02:10:00.796Z,95.69
2022-10-18T02:13:03.738Z,100.00
2022-10-18T02:16:20.263Z,100.00
2022-10-18T02:19:31.906Z,100.00
2022-10-18T02:22:37.478Z,100.00
2022-10-18T02:25:41.077Z,100.00
2022-10-18T02:28:45.885Z,98.90
2022-10-18T02:32:03.874Z,98.29
2022-10-18T02:35:25.700Z,97.67
2022-10-18T02:38:33.196Z,97.55
2022-10-18T02:41:36.625Z,97.22
2022-10-18T02:44:39.586Z,97.09
2022-10-18T02:47:43.637Z,97.66
2022-10-18T02:50:46.539Z,97.81
2022-10-18T02:53:49.969Z,97.01
2022-10-18T02:56:53.583Z,98.04
2022-10-18T02:59:58.310Z,96.20
2022-10-18T03:03:01.186Z,96.88
2022-10-18T03:06:04.949Z,96.96
2022-10-18T03:09:08.886Z,96.78
2022-10-18T03:12:12.244Z,97.17
2022-10-18T03:15:15.202Z,97.47
2022-10-18T03:18:18.801Z,98.25
2022-10-18T03:21:21.790Z,97.77
2022-10-18T03:24:25.621Z,98.01
2022-10-18T03:27:28.972Z,98.45
2022-10-18T03:30:32.449Z,96.30
2022-10-18T03:33:35.093Z,95.28
2022-10-18T03:36:39.050Z,98.37
2022-10-18T03:39:41.566Z,97.36
2022-10-18T03:42:46.788Z,98.05
2022-10-18T03:45:49.807Z,97.38
2022-10-18T03:48:52.918Z,97.51
2022-10-18T03:51:55.701Z,96.95
2022-10-18T03:54:58.821Z,95.50
2022-10-18T03:58:01.951Z,96.62
2022-10-18T04:01:06.102Z,96.50
2022-10-18T04:04:09.031Z,97.42
2022-10-18T04:07:11.182Z,98.18
2022-10-18T04:10:13.796Z,97.12
2022-10-18T04:13:15.897Z,100.00
2022-10-18T04:16:18.599Z,98.55
2022-10-18T04:19:20.793Z,100.00
2022-10-18T04:22:23.265Z,100.00
2022-10-18T04:25:25.398Z,100.00
2022-10-18T04:28:27.884Z,100.00
2022-10-18T04:31:30.094Z,100.00
2022-10-18T04:34:32.734Z,100.00
2022-10-18T04:37:35.866Z,99.63
2022-10-18T04:40:38.375Z,100.00
2022-10-18T04:43:40.719Z,100.00
2022-10-18T04:46:43.410Z,100.00
2022-10-18T04:49:45.703Z,100.00
2022-10-18T04:55:50.862Z,100.00
2022-10-18T04:58:53.753Z,99.17
2022-10-18T05:01:55.946Z,98.25
2022-10-18T05:04:58.594Z,100.00
2022-10-18T05:08:00.787Z,99.43
2022-10-18T05:11:04.472Z,99.36
2022-10-18T05:14:06.872Z,99.87
2022-10-18T05:17:09.401Z,99.32
2022-10-18T05:20:11.832Z,98.99
2022-10-18T05:23:14.300Z,97.69
2022-10-18T05:26:16.481Z,98.57
2022-10-18T05:29:18.925Z,99.37
2022-10-18T05:32:21.459Z,97.60
2022-10-18T05:35:24.966Z,97.52
2022-10-18T05:38:27.187Z,98.09
2022-10-18T05:41:29.715Z,97.16
2022-10-18T05:44:32.303Z,96.31
2022-10-18T05:50:40.251Z,96.33
2022-10-18T05:53:43.585Z,96.73
2022-10-18T05:56:45.807Z,96.90
2022-10-18T05:59:48.349Z,96.08
2022-10-18T06:02:51.214Z,95.73
2022-10-18T06:05:58.706Z,95.91
2022-10-18T06:09:03.251Z,96.05
2022-10-18T06:12:06.037Z,95.48
2022-10-18T06:15:08.435Z,95.15
2022-10-18T06:18:10.867Z,94.88
2022-10-18T06:21:14.758Z,94.10
2022-10-18T06:24:18.505Z,94.66
2022-10-18T06:27:20.936Z,94.23
2022-10-18T06:30:23.488Z,93.76
2022-10-18T06:33:27.003Z,93.08
2022-10-18T06:36:29.467Z,92.02
2022-10-18T06:39:32.427Z,90.73
2022-10-18T06:42:36.137Z,90.44
2022-10-18T06:45:40.736Z,89.14
2022-10-18T06:48:43.419Z,86.03
2022-10-18T06:51:46.180Z,86.10
2022-10-18T06:54:48.650Z,85.62
2022-10-18T06:57:50.751Z,85.23
2022-10-18T07:00:53.187Z,84.71
2022-10-18T07:03:55.799Z,84.53
2022-10-18T07:06:58.293Z,82.38
2022-10-18T07:10:00.435Z,84.37
2022-10-18T07:13:27.495Z,83.36
2022-10-18T07:16:26.251Z,82.14
2022-10-18T07:19:28.873Z,78.58
2022-10-18T07:22:31.411Z,76.26
2022-10-18T07:25:34.774Z,76.00
2022-10-18T07:28:36.976Z,74.87
2022-10-18T07:31:40.855Z,71.97
2022-10-18T07:34:44.275Z,73.28
2022-10-18T07:37:49.105Z,73.26
2022-10-18T07:41:05.230Z,71.78
2022-10-18T07:44:08.009Z,71.22
2022-10-18T07:47:10.107Z,69.91
2022-10-18T07:50:12.465Z,67.69
2022-10-18T07:53:14.913Z,67.97
2022-10-18T07:56:22.082Z,66.11
2022-10-18T07:59:24.233Z,64.89
2022-10-18T08:02:26.811Z,63.14
2022-10-18T08:05:29.973Z,62.57
2022-10-18T08:08:32.184Z,62.51
2022-10-18T08:11:34.546Z,62.73
2022-10-18T08:14:38.690Z,63.27
2022-10-18T08:17:43.500Z,63.83
2022-10-18T08:20:46.378Z,63.31
2022-10-18T08:23:49.614Z,63.18
2022-10-18T08:26:52.026Z,61.57
2022-10-18T08:29:54.976Z,61.41
2022-10-18T08:32:57.758Z,62.92
2022-10-18T08:36:02.936Z,60.59
2022-10-18T08:39:05.416Z,61.52
2022-10-18T08:42:45.845Z,61.42
2022-10-18T08:45:51.015Z,58.05
2022-10-18T08:48:56.909Z,58.31
2022-10-18T08:51:59.155Z,58.73
2022-10-18T08:55:03.734Z,55.09
2022-10-18T08:58:24.774Z,54.60
2022-10-18T09:01:46.021Z,54.60
2022-10-18T09:05:30.232Z,55.56
2022-10-18T09:08:55.502Z,52.02
2022-10-18T09:12:35.194Z,53.85
2022-10-18T09:15:46.642Z,52.72
2022-10-18T09:18:57.263Z,53.50
2022-10-18T09:22:11.967Z,53.59
2022-10-18T09:25:17.071Z,51.08
2022-10-18T09:28:29.482Z,50.19
2022-10-18T09:31:51.616Z,49.51
2022-10-18T09:35:20.256Z,50.05
2022-10-18T09:38:30.820Z,50.09
2022-10-18T09:41:45.868Z,49.27
2022-10-18T09:44:53.673Z,50.19
2022-10-18T09:48:06.238Z,49.21
2022-10-18T09:51:17.720Z,48.78
2022-10-18T09:54:31.260Z,48.14
2022-10-18T09:57:48.999Z,48.26
2022-10-18T10:00:55.654Z,47.38
2022-10-18T10:03:59.199Z,47.31
2022-10-18T10:07:02.661Z,46.34
2022-10-18T10:10:22.219Z,46.50
2022-10-18T10:13:26.254Z,46.22
2022-10-18T10:16:32.770Z,45.82
2022-10-18T10:19:56.973Z,46.03
2022-10-18T10:23:21.895Z,45.25
2022-10-18T10:26:25.695Z,45.01
2022-10-18T10:29:46.818Z,45.13
2022-10-18T10:32:52.788Z,44.00
2022-10-18T10:36:05.890Z,44.93
2022-10-18T10:39:18.749Z,44.89
2022-10-18T10:42:21.793Z,44.94
2022-10-18T10:45:27.302Z,44.86
2022-10-18T10:48:41.224Z,45.15
2022-10-18T10:51:53.678Z,45.09
2022-10-18T10:55:42.726Z,44.45
2022-10-18T10:58:45.861Z,45.63
2022-10-18T11:01:51.648Z,44.73
2022-10-18T11:04:59.437Z,45.61
2022-10-18T11:08:06.259Z,46.15
2022-10-18T11:11:22.901Z,45.36
2022-10-18T11:14:30.747Z,44.75
2022-10-18T11:18:17.506Z,44.56
2022-10-18T11:21:42.673Z,44.54
2022-10-18T11:24:46.160Z,43.80
2022-10-18T11:28:01.814Z,43.85
2022-10-18T11:31:31.304Z,45.25
2022-10-18T11:35:03.877Z,43.75
2022-10-18T11:38:39.299Z,43.68
2022-10-18T11:42:25.458Z,43.05
2022-10-18T11:46:01.163Z,42.32
2022-10-18T11:50:10.383Z,42.73
2022-10-18T11:53:52.161Z,41.74
2022-10-18T11:57:08.463Z,42.87
2022-10-18T12:00:14.389Z,42.21
2022-10-18T12:03:36.039Z,42.39
2022-10-18T12:06:43.048Z,41.95
2022-10-18T12:13:02.179Z,41.33
2022-10-18T12:16:08.429Z,42.27
2022-10-18T12:19:25.452Z,42.53
2022-10-18T12:22:36.541Z,43.13
2022-10-18T12:25:45.303Z,41.47
2022-10-18T12:29:04.138Z,40.46
2022-10-18T12:32:13.156Z,41.59
2022-10-18T12:35:19.569Z,41.99
2022-10-18T12:38:31.998Z,40.53
2022-10-18T12:41:36.645Z,40.28
2022-10-18T12:44:40.705Z,41.73
2022-10-18T12:47:43.567Z,42.01
2022-10-18T12:51:17.867Z,42.51
2022-10-18T12:55:00.642Z,41.97
2022-10-18T12:58:21.013Z,41.64
2022-10-18T13:01:25.407Z,42.00
2022-10-18T13:04:27.544Z,41.68
2022-10-18T13:07:40.836Z,42.22
2022-10-18T13:10:44.651Z,41.56
2022-10-18T13:13:55.892Z,41.11
2022-10-18T13:17:43.664Z,40.91
2022-10-18T13:21:11.257Z,41.99
2022-10-18T13:24:48.408Z,40.85
2022-10-18T13:28:02.434Z,42.87
2022-10-18T13:31:10.582Z,41.75
2022-10-18T13:34:30.809Z,41.44
2022-10-18T13:37:33.700Z,42.07
2022-10-18T13:40:36.487Z,42.05
2022-10-18T13:43:54.079Z,43.17
2022-10-18T13:46:56.477Z,41.94
2022-10-18T13:50:16.550Z,42.62
2022-10-18T13:53:41.186Z,41.41
2022-10-18T13:57:09.162Z,43.99
2022-10-18T14:04:39.726Z,43.15
2022-10-18T14:07:44.737Z,43.21
2022-10-18T14:11:03.552Z,42.32
2022-10-18T14:14:29.947Z,44.05
2022-10-18T14:17:44.506Z,42.17
2022-10-18T14:21:12.358Z,43.97
2022-10-18T14:24:23.662Z,43.06
2022-10-18T14:27:32.553Z,45.57
2022-10-18T14:30:54.151Z,44.61
2022-10-18T14:33:59.010Z,45.35
2022-10-18T14:37:04.042Z,45.23
2022-10-18T14:40:26.017Z,45.46
2022-10-18T14:43:29.515Z,46.47
2022-10-18T14:46:34.617Z,47.90
2022-10-18T14:49:49.969Z,49.03
2022-10-18T14:52:58.186Z,48.89
2022-10-18T14:56:08.179Z,50.16
2022-10-18T14:59:34.416Z,51.58
2022-10-18T15:02:47.269Z,51.51
2022-10-18T15:06:05.254Z,51.52
2022-10-18T15:09:16.203Z,51.11
2022-10-18T15:12:36.856Z,53.51
2022-10-18T15:15:57.024Z,53.19
2022-10-18T15:19:40.102Z,53.56
2022-10-18T15:22:47.496Z,54.57
2022-10-18T15:25:54.852Z,54.88
2022-10-18T15:29:06.127Z,54.86
2022-10-18T15:32:26.654Z,55.49
2022-10-18T15:35:39.446Z,56.25
2022-10-18T15:38:47.571Z,57.14
2022-10-18T15:41:59.664Z,57.17
2022-10-18T15:45:03.729Z,57.33
2022-10-18T15:48:07.828Z,58.67
2022-10-18T15:51:34.072Z,59.42
2022-10-18T15:55:04.513Z,60.30
2022-10-18T15:58:41.302Z,60.85
2022-10-18T16:01:45.464Z,61.56
2022-10-18T16:04:55.640Z,62.49
2022-10-18T16:08:01.093Z,63.32
2022-10-18T16:11:07.629Z,64.77
2022-10-18T16:14:11.361Z,65.42
2022-10-18T16:17:17.389Z,66.57
2022-10-18T16:20:33.638Z,67.34
2022-10-18T16:23:37.822Z,66.95
2022-10-18T16:26:44.071Z,67.41
2022-10-18T16:29:52.140Z,68.05
2022-10-18T16:32:56.168Z,69.09
2022-10-18T16:36:02.135Z,69.81
2022-10-18T16:39:09.290Z,70.90
2022-10-18T16:42:19.503Z,72.60
2022-10-18T16:45:26.184Z,73.08
2022-10-18T16:48:35.457Z,74.34
2022-10-18T16:51:39.844Z,75.63
2022-10-18T16:54:44.563Z,76.28
2022-10-18T17:01:14.338Z,79.98
2022-10-18T17:04:18.400Z,80.10
2022-10-18T17:07:28.039Z,79.39
2022-10-18T17:10:35.339Z,80.01
2022-10-18T17:13:44.057Z,79.52
2022-10-18T17:16:54.883Z,78.47
2022-10-18T17:20:04.081Z,78.60
2022-10-18T17:23:09.914Z,78.52
2022-10-18T17:26:30.094Z,78.43
2022-10-18T17:29:36.054Z,78.45
2022-10-18T17:32:45.060Z,78.55
2022-10-18T17:35:50.523Z,79.07
2022-10-18T17:38:56.442Z,78.60
2022-10-18T17:42:00.433Z,79.40
2022-10-18T17:45:08.677Z,79.99
2022-10-18T17:48:17.244Z,79.30
2022-10-18T17:51:27.041Z,79.99
2022-10-18T17:54:30.128Z,80.36
2022-10-18T17:57:41.072Z,80.29
2022-10-18T18:00:48.531Z,80.21
2022-10-18T18:04:02.334Z,79.82
2022-10-18T18:07:06.006Z,79.50
2022-10-18T18:10:10.288Z,79.92
2022-10-18T18:13:19.639Z,79.81
2022-10-18T18:16:29.894Z,80.01
2022-10-18T18:19:35.381Z,80.46
2022-10-18T18:22:42.583Z,80.13
2022-10-18T18:25:57.955Z,81.04
2022-10-18T18:32:14.940Z,83.45
2022-10-18T18:35:37.075Z,83.31
2022-10-18T18:38:45.989Z,82.57
2022-10-18T18:41:52.351Z,82.56
2022-10-18T18:44:57.069Z,81.82
2022-10-18T18:48:12.736Z,82.32
2022-10-18T18:51:25.085Z,82.02
2022-10-18T18:54:31.450Z,83.50
2022-10-18T18:57:36.541Z,84.52
2022-10-18T19:00:45.586Z,84.83
2022-10-18T19:03:51.972Z,84.74
2022-10-18T19:06:55.570Z,83.38
2022-10-18T19:10:00.319Z,82.71
2022-10-18T19:13:07.773Z,82.19
2022-10-18T19:16:35.525Z,81.32
2022-10-18T19:19:43.603Z,81.21
2022-10-18T19:22:54.964Z,81.05
2022-10-18T19:26:44.280Z,81.78
2022-10-18T19:29:49.823Z,81.48
2022-10-18T19:33:03.700Z,80.83
2022-10-18T19:36:10.326Z,81.42
2022-10-18T19:39:30.463Z,81.02
2022-10-18T19:42:42.108Z,80.21
2022-10-18T19:45:46.796Z,80.58
2022-10-18T19:48:55.664Z,82.59
2022-10-18T19:52:01.617Z,83.26
2022-10-18T19:55:06.242Z,82.79
2022-10-18T19:58:13.468Z,82.41
2022-10-18T20:01:19.895Z,82.93
2022-10-18T20:04:26.184Z,83.65
2022-10-18T20:07:29.776Z,83.65
2022-10-18T20:10:34.847Z,85.64
2022-10-18T20:13:51.660Z,86.12
2022-10-18T20:17:07.625Z,86.56
2022-10-18T20:20:22.292Z,86.10
2022-10-18T20:23:47.816Z,86.30
2022-10-18T20:26:54.699Z,85.18
2022-10-18T20:30:12.814Z,85.22
2022-10-18T20:33:29.644Z,85.53
2022-10-18T20:40:05.859Z,87.12
2022-10-18T20:43:29.812Z,87.93
2022-10-18T20:46:47.141Z,89.84
2022-10-18T20:50:07.013Z,90.39
2022-10-18T20:53:17.845Z,89.87
2022-10-18T20:56:33.385Z,88.11
2022-10-18T20:59:41.678Z,87.05
2022-10-18T21:02:45.179Z,85.63
2022-10-18T21:05:50.066Z,85.05
2022-10-18T21:09:08.258Z,84.92
2022-10-18T21:12:27.600Z,85.52
2022-10-18T21:15:34.191Z,85.02
2022-10-18T21:18:42.297Z,86.92
2022-10-18T21:21:56.263Z,87.75
2022-10-18T21:25:11.273Z,87.41
2022-10-18T21:28:28.183Z,87.39
2022-10-18T21:31:43.846Z,87.63
2022-10-18T21:34:50.873Z,87.32
2022-10-18T21:38:07.242Z,89.11
2022-10-18T21:41:17.852Z,90.05
2022-10-18T21:44:38.154Z,89.26
2022-10-18T21:47:42.346Z,88.45
2022-10-18T21:50:46.896Z,87.75
2022-10-18T21:53:53.366Z,87.02
2022-10-18T21:57:00.039Z,86.70
2022-10-18T22:00:06.233Z,85.93
2022-10-18T22:03:15.219Z,86.23
2022-10-18T22:06:25.034Z,86.75
2022-10-18T22:09:29.618Z,86.15
2022-10-18T22:12:36.042Z,87.04
2022-10-18T22:15:42.109Z,87.06
2022-10-18T22:18:48.447Z,85.78
2022-10-18T22:21:53.680Z,86.41
2022-10-18T22:25:07.288Z,87.39
2022-10-18T22:28:13.413Z,87.61
2022-10-18T22:31:23.777Z,87.75
2022-10-18T22:34:33.012Z,87.39
2022-10-18T22:37:44.078Z,86.48
2022-10-18T22:40:49.391Z,85.10
2022-10-18T22:43:59.748Z,83.95
2022-10-18T22:47:12.476Z,82.88
2022-10-18T22:50:25.942Z,83.82
2022-10-18T22:53:31.928Z,82.41
2022-10-18T22:56:47.046Z,81.19
2022-10-18T23:00:03.606Z,80.61
2022-10-18T23:03:39.536Z,79.00
2022-10-18T23:06:47.686Z,79.61
2022-10-18T23:09:57.715Z,79.86
2022-10-18T23:13:06.685Z,79.33
2022-10-18T23:16:10.731Z,78.81
2022-10-18T23:19:18.729Z,78.36
2022-10-18T23:22:28.447Z,79.05
2022-10-18T23:25:51.789Z,79.92
2022-10-18T23:28:59.251Z,80.26
2022-10-18T23:32:02.523Z,79.31
2022-10-18T23:35:11.249Z,79.93
2022-10-18T23:38:14.762Z,81.16
2022-10-18T23:41:20.617Z,81.62
2022-10-18T23:44:25.692Z,83.76
2022-10-18T23:47:37.013Z,83.19
2022-10-18T23:50:43.270Z,84.14
2022-10-18T23:53:51.332Z,84.85
2022-10-18T23:56:59.651Z,84.94
